sensor_id;sensor_type;location;lat;lon;timestamp;temperature;humidity
652;DHT22;310;48.490;9.200;2022-10-28T00:00:22;17.50;45.20
652;DHT22;310;48.490;9.200;2022-10-28T00:02:48;17.30;45.80
652;DHT22;310;48.490;9.200;2022-10-28T00:05:13;17.40;45.60
652;DHT22;310;48.490;9.200;2022-10-28T00:07:39;17.30;45.30
652;DHT22;310;48.490;9.200;2022-10-28T00:10:05;17.20;45.40
652;DHT22;310;48.490;9.200;2022-10-28T00:12:34;17.20;45.40
652;DHT22;310;48.490;9.200;2022-10-28T00:15:00;17.10;46.20
652;DHT22;310;48.490;9.200;2022-10-28T00:17:26;17.10;46.00
652;DHT22;310;48.490;9.200;2022-10-28T00:19:52;17.10;46.80
652;DHT22;310;48.490;9.200;2022-10-28T00:22:17;17.10;46.90
652;DHT22;310;48.490;9.200;2022-10-28T00:24:43;17.20;46.30
652;DHT22;310;48.490;9.200;2022-10-28T00:27:08;17.20;46.00
652;DHT22;310;48.490;9.200;2022-10-28T00:29:34;17.30;46.70
652;DHT22;310;48.490;9.200;2022-10-28T00:31:59;17.20;46.70
652;DHT22;310;48.490;9.200;2022-10-28T00:34:25;17.20;46.00
652;DHT22;310;48.490;9.200;2022-10-28T00:36:51;17.40;45.70
652;DHT22;310;48.490;9.200;2022-10-28T00:39:18;17.50;45.90
652;DHT22;310;48.490;9.200;2022-10-28T00:41:46;17.40;46.00
652;DHT22;310;48.490;9.200;2022-10-28T00:47:43;17.00;46.40
652;DHT22;310;48.490;9.200;2022-10-28T00:52:38;16.20;48.50
652;DHT22;310;48.490;9.200;2022-10-28T00:55:05;15.60;52.80
652;DHT22;310;48.490;9.200;2022-10-28T00:57:36;15.70;52.30
652;DHT22;310;48.490;9.200;2022-10-28T01:00:05;16.20;50.50
652;DHT22;310;48.490;9.200;2022-10-28T01:02:34;15.80;50.70
652;DHT22;310;48.490;9.200;2022-10-28T01:05:02;16.10;50.50
652;DHT22;310;48.490;9.200;2022-10-28T01:07:29;16.20;49.60
652;DHT22;310;48.490;9.200;2022-10-28T01:09:55;16.30;49.10
652;DHT22;310;48.490;9.200;2022-10-28T01:12:42;16.60;48.90
652;DHT22;310;48.490;9.200;2022-10-28T01:17:55;16.50;48.00
652;DHT22;310;48.490;9.200;2022-10-28T01:23:55;16.40;48.30
652;DHT22;310;48.490;9.200;2022-10-28T01:26:55;16.40;48.00
652;DHT22;310;48.490;9.200;2022-10-28T01:30:07;16.40;47.50
652;DHT22;310;48.490;9.200;2022-10-28T01:35:52;16.50;47.10
652;DHT22;310;48.490;9.200;2022-10-28T01:41:12;16.70;47.10
652;DHT22;310;48.490;9.200;2022-10-28T01:43:47;16.60;47.20
652;DHT22;310;48.490;9.200;2022-10-28T01:46:40;16.40;47.50
652;DHT22;310;48.490;9.200;2022-10-28T01:49:12;16.30;47.80
652;DHT22;310;48.490;9.200;2022-10-28T01:51:45;16.30;47.80
652;DHT22;310;48.490;9.200;2022-10-28T01:54:15;16.40;47.40
652;DHT22;310;48.490;9.200;2022-10-28T01:56:42;16.50;46.80
652;DHT22;310;48.490;9.200;2022-10-28T01:59:15;16.40;46.80
652;DHT22;310;48.490;9.200;2022-10-28T02:01:41;16.30;47.60
652;DHT22;310;48.490;9.200;2022-10-28T02:04:06;16.40;47.20
652;DHT22;310;48.490;9.200;2022-10-28T02:06:32;16.40;47.20
652;DHT22;310;48.490;9.200;2022-10-28T02:12:34;16.30;47.00
652;DHT22;310;48.490;9.200;2022-10-28T02:29:01;16.20;47.70
652;DHT22;310;48.490;9.200;2022-10-28T02:31:33;16.20;47.00
652;DHT22;310;48.490;9.200;2022-10-28T02:34:03;16.20;47.50
652;DHT22;310;48.490;9.200;2022-10-28T02:36:33;16.30;47.40
652;DHT22;310;48.490;9.200;2022-10-28T02:39:00;16.30;47.70
652;DHT22;310;48.490;9.200;2022-10-28T02:44:16;16.20;47.40
652;DHT22;310;48.490;9.200;2022-10-28T02:46:44;16.20;47.10
652;DHT22;310;48.490;9.200;2022-10-28T02:49:12;16.30;47.20
652;DHT22;310;48.490;9.200;2022-10-28T02:51:51;16.10;48.30
652;DHT22;310;48.490;9.200;2022-10-28T02:54:26;16.10;47.90
652;DHT22;310;48.490;9.200;2022-10-28T02:57:04;16.20;48.00
652;DHT22;310;48.490;9.200;2022-10-28T02:59:31;16.10;48.30
652;DHT22;310;48.490;9.200;2022-10-28T03:01:57;16.20;48.10
652;DHT22;310;48.490;9.200;2022-10-28T03:04:23;16.20;48.10
652;DHT22;310;48.490;9.200;2022-10-28T03:06:48;16.20;48.10
652;DHT22;310;48.490;9.200;2022-10-28T03:09:14;15.90;49.30
652;DHT22;310;48.490;9.200;2022-10-28T03:11:39;15.70;49.90
652;DHT22;310;48.490;9.200;2022-10-28T03:14:05;15.90;49.20
652;DHT22;310;48.490;9.200;2022-10-28T03:16:30;16.00;49.00
652;DHT22;310;48.490;9.200;2022-10-28T03:18:56;16.00;48.70
652;DHT22;310;48.490;9.200;2022-10-28T03:21:22;16.00;48.90
652;DHT22;310;48.490;9.200;2022-10-28T03:23:47;15.90;48.90
652;DHT22;310;48.490;9.200;2022-10-28T03:26:13;16.00;49.50
652;DHT22;310;48.490;9.200;2022-10-28T03:28:39;16.00;48.90
652;DHT22;310;48.490;9.200;2022-10-28T03:31:04;16.00;49.20
652;DHT22;310;48.490;9.200;2022-10-28T03:33:30;16.00;49.10
652;DHT22;310;48.490;9.200;2022-10-28T03:35:56;16.10;48.90
652;DHT22;310;48.490;9.200;2022-10-28T03:38:22;16.10;48.70
652;DHT22;310;48.490;9.200;2022-10-28T03:40:48;16.10;49.00
652;DHT22;310;48.490;9.200;2022-10-28T03:43:15;16.20;49.30
652;DHT22;310;48.490;9.200;2022-10-28T03:45:40;16.30;49.20
652;DHT22;310;48.490;9.200;2022-10-28T03:48:06;16.30;49.30
652;DHT22;310;48.490;9.200;2022-10-28T03:50:32;16.20;48.80
652;DHT22;310;48.490;9.200;2022-10-28T03:52:57;16.30;49.30
652;DHT22;310;48.490;9.200;2022-10-28T03:55:23;16.30;49.00
652;DHT22;310;48.490;9.200;2022-10-28T03:57:50;16.30;48.40
652;DHT22;310;48.490;9.200;2022-10-28T04:00:16;16.30;48.60
652;DHT22;310;48.490;9.200;2022-10-28T04:02:42;16.40;48.90
652;DHT22;310;48.490;9.200;2022-10-28T04:05:08;16.30;49.40
652;DHT22;310;48.490;9.200;2022-10-28T04:07:34;16.30;49.50
652;DHT22;310;48.490;9.200;2022-10-28T04:09:59;16.40;49.20
652;DHT22;310;48.490;9.200;2022-10-28T04:12:25;16.40;49.60
652;DHT22;310;48.490;9.200;2022-10-28T04:14:50;16.50;49.60
652;DHT22;310;48.490;9.200;2022-10-28T04:17:17;16.60;48.60
652;DHT22;310;48.490;9.200;2022-10-28T04:19:43;16.60;48.60
652;DHT22;310;48.490;9.200;2022-10-28T04:22:08;16.60;48.90
652;DHT22;310;48.490;9.200;2022-10-28T04:24:34;16.60;48.90
652;DHT22;310;48.490;9.200;2022-10-28T04:27:00;16.60;50.20
652;DHT22;310;48.490;9.200;2022-10-28T04:29:25;16.70;49.20
652;DHT22;310;48.490;9.200;2022-10-28T04:31:51;16.80;48.20
652;DHT22;310;48.490;9.200;2022-10-28T04:34:16;16.80;48.60
652;DHT22;310;48.490;9.200;2022-10-28T04:36:42;16.70;49.20
652;DHT22;310;48.490;9.200;2022-10-28T04:39:08;16.80;49.20
652;DHT22;310;48.490;9.200;2022-10-28T04:41:34;16.80;49.50
652;DHT22;310;48.490;9.200;2022-10-28T04:44:00;16.90;49.50
652;DHT22;310;48.490;9.200;2022-10-28T04:46:25;16.90;49.50
652;DHT22;310;48.490;9.200;2022-10-28T04:48:51;17.00;49.10
652;DHT22;310;48.490;9.200;2022-10-28T04:51:16;17.00;49.10
652;DHT22;310;48.490;9.200;2022-10-28T04:53:42;16.90;49.20
652;DHT22;310;48.490;9.200;2022-10-28T04:56:08;16.90;49.10
652;DHT22;310;48.490;9.200;2022-10-28T04:58:33;16.90;49.10
652;DHT22;310;48.490;9.200;2022-10-28T05:01:07;16.90;48.30
652;DHT22;310;48.490;9.200;2022-10-28T05:03:34;17.00;48.90
652;DHT22;310;48.490;9.200;2022-10-28T05:05:59;17.00;49.10
652;DHT22;310;48.490;9.200;2022-10-28T05:08:25;16.80;49.50
652;DHT22;310;48.490;9.200;2022-10-28T05:10:51;16.80;49.40
652;DHT22;310;48.490;9.200;2022-10-28T05:13:17;16.90;48.70
652;DHT22;310;48.490;9.200;2022-10-28T05:15:43;16.80;48.70
652;DHT22;310;48.490;9.200;2022-10-28T05:18:08;16.80;48.50
652;DHT22;310;48.490;9.200;2022-10-28T05:20:34;16.30;49.40
652;DHT22;310;48.490;9.200;2022-10-28T05:22:59;16.00;50.80
652;DHT22;310;48.490;9.200;2022-10-28T05:25:25;15.80;51.70
652;DHT22;310;48.490;9.200;2022-10-28T05:27:51;16.10;51.20
652;DHT22;310;48.490;9.200;2022-10-28T05:30:17;16.30;50.90
652;DHT22;310;48.490;9.200;2022-10-28T05:32:43;16.50;50.20
652;DHT22;310;48.490;9.200;2022-10-28T05:35:09;16.60;49.90
652;DHT22;310;48.490;9.200;2022-10-28T05:37:35;16.70;49.50
652;DHT22;310;48.490;9.200;2022-10-28T05:40:00;16.70;48.80
652;DHT22;310;48.490;9.200;2022-10-28T05:42:26;16.80;48.50
652;DHT22;310;48.490;9.200;2022-10-28T05:44:52;16.70;48.90
652;DHT22;310;48.490;9.200;2022-10-28T05:47:17;16.80;49.60
652;DHT22;310;48.490;9.200;2022-10-28T05:49:43;16.80;50.10
652;DHT22;310;48.490;9.200;2022-10-28T05:52:08;16.90;49.90
652;DHT22;310;48.490;9.200;2022-10-28T05:54:34;16.90;50.30
652;DHT22;310;48.490;9.200;2022-10-28T05:56:59;17.00;50.10
652;DHT22;310;48.490;9.200;2022-10-28T05:59:25;17.10;49.80
652;DHT22;310;48.490;9.200;2022-10-28T06:01:50;17.10;49.80
652;DHT22;310;48.490;9.200;2022-10-28T06:04:16;17.30;49.00
652;DHT22;310;48.490;9.200;2022-10-28T06:06:42;17.30;48.90
652;DHT22;310;48.490;9.200;2022-10-28T06:09:07;17.40;48.20
652;DHT22;310;48.490;9.200;2022-10-28T06:11:36;17.50;48.60
652;DHT22;310;48.490;9.200;2022-10-28T06:14:01;17.40;49.30
652;DHT22;310;48.490;9.200;2022-10-28T06:16:27;17.30;49.50
652;DHT22;310;48.490;9.200;2022-10-28T06:18:53;17.30;49.20
652;DHT22;310;48.490;9.200;2022-10-28T06:21:18;17.10;48.90
652;DHT22;310;48.490;9.200;2022-10-28T06:23:45;17.10;50.20
652;DHT22;310;48.490;9.200;2022-10-28T06:26:11;17.20;50.70
652;DHT22;310;48.490;9.200;2022-10-28T06:28:37;17.40;49.70
652;DHT22;310;48.490;9.200;2022-10-28T06:31:07;17.40;49.40
652;DHT22;310;48.490;9.200;2022-10-28T06:33:34;17.40;49.40
652;DHT22;310;48.490;9.200;2022-10-28T06:36:00;17.40;49.00
652;DHT22;310;48.490;9.200;2022-10-28T06:38:29;17.30;49.70
652;DHT22;310;48.490;9.200;2022-10-28T06:40:57;17.40;49.50
652;DHT22;310;48.490;9.200;2022-10-28T06:43:24;17.40;50.00
652;DHT22;310;48.490;9.200;2022-10-28T06:45:49;17.40;49.70
652;DHT22;310;48.490;9.200;2022-10-28T06:48:19;17.40;49.20
652;DHT22;310;48.490;9.200;2022-10-28T06:50:45;17.30;49.00
652;DHT22;310;48.490;9.200;2022-10-28T06:53:10;17.40;49.10
652;DHT22;310;48.490;9.200;2022-10-28T06:55:36;17.40;48.80
652;DHT22;310;48.490;9.200;2022-10-28T06:58:02;17.40;48.60
652;DHT22;310;48.490;9.200;2022-10-28T07:00:29;17.50;48.40
652;DHT22;310;48.490;9.200;2022-10-28T07:02:55;17.50;48.70
652;DHT22;310;48.490;9.200;2022-10-28T07:05:22;17.60;49.30
652;DHT22;310;48.490;9.200;2022-10-28T07:07:48;17.60;48.80
652;DHT22;310;48.490;9.200;2022-10-28T07:10:14;17.70;48.10
652;DHT22;310;48.490;9.200;2022-10-28T07:12:40;17.70;48.90
652;DHT22;310;48.490;9.200;2022-10-28T07:15:06;17.70;49.00
652;DHT22;310;48.490;9.200;2022-10-28T07:17:32;18.00;48.00
652;DHT22;310;48.490;9.200;2022-10-28T07:19:57;18.00;48.50
652;DHT22;310;48.490;9.200;2022-10-28T07:22:23;18.00;49.10
652;DHT22;310;48.490;9.200;2022-10-28T07:24:49;18.00;49.30
652;DHT22;310;48.490;9.200;2022-10-28T07:27:14;17.90;48.70
652;DHT22;310;48.490;9.200;2022-10-28T07:29:40;17.10;51.90
652;DHT22;310;48.490;9.200;2022-10-28T07:32:05;16.10;57.90
652;DHT22;310;48.490;9.200;2022-10-28T07:34:31;15.70;61.10
652;DHT22;310;48.490;9.200;2022-10-28T07:36:57;16.00;60.10
652;DHT22;310;48.490;9.200;2022-10-28T07:39:22;16.60;56.60
652;DHT22;310;48.490;9.200;2022-10-28T07:41:48;16.40;55.40
652;DHT22;310;48.490;9.200;2022-10-28T07:44:14;16.00;57.70
652;DHT22;310;48.490;9.200;2022-10-28T07:46:40;16.40;55.50
652;DHT22;310;48.490;9.200;2022-10-28T07:49:06;17.00;53.00
652;DHT22;310;48.490;9.200;2022-10-28T07:51:31;17.60;50.40
652;DHT22;310;48.490;9.200;2022-10-28T07:53:57;17.30;50.00
652;DHT22;310;48.490;9.200;2022-10-28T07:56:23;17.70;50.50
652;DHT22;310;48.490;9.200;2022-10-28T07:58:49;17.90;50.20
652;DHT22;310;48.490;9.200;2022-10-28T08:01:17;18.20;49.60
652;DHT22;310;48.490;9.200;2022-10-28T08:03:43;18.30;48.60
652;DHT22;310;48.490;9.200;2022-10-28T08:06:10;18.60;48.00
652;DHT22;310;48.490;9.200;2022-10-28T08:08:37;18.40;47.80
652;DHT22;310;48.490;9.200;2022-10-28T08:11:11;18.00;49.30
652;DHT22;310;48.490;9.200;2022-10-28T08:13:37;17.50;51.10
652;DHT22;310;48.490;9.200;2022-10-28T08:16:02;17.50;51.70
652;DHT22;310;48.490;9.200;2022-10-28T08:18:28;17.80;50.00
652;DHT22;310;48.490;9.200;2022-10-28T08:20:54;18.50;49.60
652;DHT22;310;48.490;9.200;2022-10-28T08:23:22;18.80;46.50
652;DHT22;310;48.490;9.200;2022-10-28T08:25:49;19.20;46.50
652;DHT22;310;48.490;9.200;2022-10-28T08:28:15;19.40;46.50
652;DHT22;310;48.490;9.200;2022-10-28T08:30:41;19.50;46.00
652;DHT22;310;48.490;9.200;2022-10-28T08:33:06;19.70;46.00
652;DHT22;310;48.490;9.200;2022-10-28T08:35:32;20.00;44.70
652;DHT22;310;48.490;9.200;2022-10-28T08:37:59;20.10;44.10
652;DHT22;310;48.490;9.200;2022-10-28T08:43:25;20.40;42.50
652;DHT22;310;48.490;9.200;2022-10-28T08:46:11;20.50;43.10
652;DHT22;310;48.490;9.200;2022-10-28T08:48:38;20.50;42.10
652;DHT22;310;48.490;9.200;2022-10-28T08:51:24;20.40;42.00
652;DHT22;310;48.490;9.200;2022-10-28T08:53:57;20.40;42.00
652;DHT22;310;48.490;9.200;2022-10-28T08:56:32;20.40;42.00
652;DHT22;310;48.490;9.200;2022-10-28T08:59:01;20.60;42.50
652;DHT22;310;48.490;9.200;2022-10-28T09:01:49;20.80;40.90
652;DHT22;310;48.490;9.200;2022-10-28T09:04:25;21.00;40.80
652;DHT22;310;48.490;9.200;2022-10-28T09:06:52;21.00;40.00
652;DHT22;310;48.490;9.200;2022-10-28T09:09:20;21.10;40.10
652;DHT22;310;48.490;9.200;2022-10-28T09:17:38;21.50;36.70
652;DHT22;310;48.490;9.200;2022-10-28T09:20:41;21.60;36.20
652;DHT22;310;48.490;9.200;2022-10-28T09:23:31;21.80;36.90
652;DHT22;310;48.490;9.200;2022-10-28T09:31:54;20.80;39.10
652;DHT22;310;48.490;9.200;2022-10-28T09:34:42;20.40;40.20
652;DHT22;310;48.490;9.200;2022-10-28T09:37:13;20.20;41.80
652;DHT22;310;48.490;9.200;2022-10-28T09:39:43;20.10;42.90
652;DHT22;310;48.490;9.200;2022-10-28T09:42:18;20.30;42.50
652;DHT22;310;48.490;9.200;2022-10-28T09:44:50;20.60;42.00
652;DHT22;310;48.490;9.200;2022-10-28T09:47:28;21.10;41.30
652;DHT22;310;48.490;9.200;2022-10-28T09:49:57;21.30;41.70
652;DHT22;310;48.490;9.200;2022-10-28T09:52:31;21.20;42.10
652;DHT22;310;48.490;9.200;2022-10-28T09:55:05;21.30;40.50
652;DHT22;310;48.490;9.200;2022-10-28T09:57:31;20.10;43.60
652;DHT22;310;48.490;9.200;2022-10-28T09:59:58;19.40;46.90
652;DHT22;310;48.490;9.200;2022-10-28T10:02:28;20.30;45.30
652;DHT22;310;48.490;9.200;2022-10-28T10:04:56;20.80;43.40
652;DHT22;310;48.490;9.200;2022-10-28T10:07:37;20.70;42.10
652;DHT22;310;48.490;9.200;2022-10-28T10:10:12;20.20;43.80
652;DHT22;310;48.490;9.200;2022-10-28T10:12:38;20.80;42.60
652;DHT22;310;48.490;9.200;2022-10-28T10:15:06;21.50;41.10
652;DHT22;310;48.490;9.200;2022-10-28T10:17:39;21.60;41.70
652;DHT22;310;48.490;9.200;2022-10-28T10:20:08;21.90;39.80
652;DHT22;310;48.490;9.200;2022-10-28T10:22:42;21.50;39.30
652;DHT22;310;48.490;9.200;2022-10-28T10:27:51;22.20;39.00
652;DHT22;310;48.490;9.200;2022-10-28T10:30:21;22.70;36.40
652;DHT22;310;48.490;9.200;2022-10-28T10:32:47;22.70;35.80
652;DHT22;310;48.490;9.200;2022-10-28T10:37:43;23.10;35.40
652;DHT22;310;48.490;9.200;2022-10-28T10:40:20;23.00;35.50
652;DHT22;310;48.490;9.200;2022-10-28T10:42:47;22.80;34.10
652;DHT22;310;48.490;9.200;2022-10-28T10:45:26;22.80;34.70
652;DHT22;310;48.490;9.200;2022-10-28T10:48:08;23.00;34.20
652;DHT22;310;48.490;9.200;2022-10-28T10:50:35;23.20;33.00
652;DHT22;310;48.490;9.200;2022-10-28T10:53:02;23.30;33.90
652;DHT22;310;48.490;9.200;2022-10-28T10:56:01;23.80;33.60
652;DHT22;310;48.490;9.200;2022-10-28T10:58:30;24.10;32.40
652;DHT22;310;48.490;9.200;2022-10-28T11:00:59;24.30;31.10
652;DHT22;310;48.490;9.200;2022-10-28T11:03:32;23.80;31.90
652;DHT22;310;48.490;9.200;2022-10-28T11:06:05;23.20;34.00
652;DHT22;310;48.490;9.200;2022-10-28T11:08:37;22.90;36.20
652;DHT22;310;48.490;9.200;2022-10-28T11:11:17;22.90;35.20
652;DHT22;310;48.490;9.200;2022-10-28T11:13:45;22.60;36.20
652;DHT22;310;48.490;9.200;2022-10-28T11:16:22;22.30;36.30
652;DHT22;310;48.490;9.200;2022-10-28T11:18:50;22.70;36.00
652;DHT22;310;48.490;9.200;2022-10-28T11:29:36;23.60;35.50
652;DHT22;310;48.490;9.200;2022-10-28T11:32:25;24.00;34.40
652;DHT22;310;48.490;9.200;2022-10-28T11:35:31;24.40;32.90
652;DHT22;310;48.490;9.200;2022-10-28T11:57:53;25.40;32.30
652;DHT22;310;48.490;9.200;2022-10-28T12:11:56;25.10;35.80
652;DHT22;310;48.490;9.200;2022-10-28T12:17:11;25.10;35.10
652;DHT22;310;48.490;9.200;2022-10-28T12:22:39;25.00;35.20
652;DHT22;310;48.490;9.200;2022-10-28T12:25:19;25.10;34.40
652;DHT22;310;48.490;9.200;2022-10-28T12:27:48;25.10;34.70
652;DHT22;310;48.490;9.200;2022-10-28T12:30:20;25.10;35.60
652;DHT22;310;48.490;9.200;2022-10-28T12:32:50;25.10;35.00
652;DHT22;310;48.490;9.200;2022-10-28T12:35:30;25.30;33.50
652;DHT22;310;48.490;9.200;2022-10-28T12:40:36;25.60;34.00
652;DHT22;310;48.490;9.200;2022-10-28T12:45:32;26.00;31.60
652;DHT22;310;48.490;9.200;2022-10-28T12:48:29;26.40;30.60
652;DHT22;310;48.490;9.200;2022-10-28T12:51:16;26.70;30.50
652;DHT22;310;48.490;9.200;2022-10-28T12:54:17;26.70;30.50
652;DHT22;310;48.490;9.200;2022-10-28T12:56:53;26.10;32.60
652;DHT22;310;48.490;9.200;2022-10-28T13:02:42;25.80;33.30
652;DHT22;310;48.490;9.200;2022-10-28T13:05:22;26.30;31.60
652;DHT22;310;48.490;9.200;2022-10-28T13:25:25;27.40;31.00
652;DHT22;310;48.490;9.200;2022-10-28T13:27:59;28.40;31.60
652;DHT22;310;48.490;9.200;2022-10-28T13:30:26;29.00;31.10
652;DHT22;310;48.490;9.200;2022-10-28T13:35:27;29.10;27.00
652;DHT22;310;48.490;9.200;2022-10-28T13:37:53;28.70;27.50
652;DHT22;310;48.490;9.200;2022-10-28T13:43:19;27.70;29.40
652;DHT22;310;48.490;9.200;2022-10-28T13:45:53;27.70;28.70
652;DHT22;310;48.490;9.200;2022-10-28T14:01:51;27.00;31.90
652;DHT22;310;48.490;9.200;2022-10-28T14:04:37;26.80;31.90
652;DHT22;310;48.490;9.200;2022-10-28T14:09:36;26.80;30.60
652;DHT22;310;48.490;9.200;2022-10-28T14:12:31;27.30;31.00
652;DHT22;310;48.490;9.200;2022-10-28T14:17:43;28.60;30.10
652;DHT22;310;48.490;9.200;2022-10-28T14:20:23;29.20;29.00
652;DHT22;310;48.490;9.200;2022-10-28T14:22:51;29.60;28.70
652;DHT22;310;48.490;9.200;2022-10-28T14:44:40;26.90;34.80
652;DHT22;310;48.490;9.200;2022-10-28T14:47:27;26.70;35.20
652;DHT22;310;48.490;9.200;2022-10-28T14:50:18;26.50;34.20
652;DHT22;310;48.490;9.200;2022-10-28T14:52:45;26.40;35.20
652;DHT22;310;48.490;9.200;2022-10-28T14:55:28;26.30;35.10
652;DHT22;310;48.490;9.200;2022-10-28T15:03:17;26.30;36.30
652;DHT22;310;48.490;9.200;2022-10-28T15:05:43;26.30;35.90
652;DHT22;310;48.490;9.200;2022-10-28T15:08:09;26.30;36.10
652;DHT22;310;48.490;9.200;2022-10-28T15:10:35;26.10;35.50
652;DHT22;310;48.490;9.200;2022-10-28T15:13:01;26.10;36.60
652;DHT22;310;48.490;9.200;2022-10-28T15:15:32;25.90;36.50
652;DHT22;310;48.490;9.200;2022-10-28T15:17:59;25.90;36.20
652;DHT22;310;48.490;9.200;2022-10-28T15:20:29;26.00;37.30
652;DHT22;310;48.490;9.200;2022-10-28T15:23:19;25.90;37.10
652;DHT22;310;48.490;9.200;2022-10-28T15:25:45;25.90;38.20
652;DHT22;310;48.490;9.200;2022-10-28T15:28:11;25.60;40.20
652;DHT22;310;48.490;9.200;2022-10-28T15:30:39;25.50;40.20
652;DHT22;310;48.490;9.200;2022-10-28T15:38:39;25.30;40.80
652;DHT22;310;48.490;9.200;2022-10-28T15:43:59;25.20;40.70
652;DHT22;310;48.490;9.200;2022-10-28T15:46:26;25.20;40.90
652;DHT22;310;48.490;9.200;2022-10-28T15:48:53;25.10;41.20
652;DHT22;310;48.490;9.200;2022-10-28T15:51:20;25.20;41.20
652;DHT22;310;48.490;9.200;2022-10-28T15:53:47;25.10;41.50
652;DHT22;310;48.490;9.200;2022-10-28T15:58:40;24.90;41.90
652;DHT22;310;48.490;9.200;2022-10-28T16:03:55;24.80;40.10
652;DHT22;310;48.490;9.200;2022-10-28T16:06:27;24.70;38.40
652;DHT22;310;48.490;9.200;2022-10-28T16:09:18;24.70;36.30
652;DHT22;310;48.490;9.200;2022-10-28T16:11:50;24.50;36.90
652;DHT22;310;48.490;9.200;2022-10-28T16:14:35;24.40;37.30
652;DHT22;310;48.490;9.200;2022-10-28T16:17:22;24.50;34.60
652;DHT22;310;48.490;9.200;2022-10-28T16:19:50;24.40;34.50
652;DHT22;310;48.490;9.200;2022-10-28T16:22:17;24.30;34.40
652;DHT22;310;48.490;9.200;2022-10-28T16:24:44;24.30;34.00
652;DHT22;310;48.490;9.200;2022-10-28T16:27:18;24.10;34.10
652;DHT22;310;48.490;9.200;2022-10-28T16:29:45;24.10;33.90
652;DHT22;310;48.490;9.200;2022-10-28T16:32:11;24.00;34.10
652;DHT22;310;48.490;9.200;2022-10-28T16:34:37;23.90;34.30
652;DHT22;310;48.490;9.200;2022-10-28T16:37:07;23.80;33.60
652;DHT22;310;48.490;9.200;2022-10-28T16:39:34;23.80;34.80
652;DHT22;310;48.490;9.200;2022-10-28T16:41:59;23.60;35.20
652;DHT22;310;48.490;9.200;2022-10-28T16:44:26;23.60;33.30
652;DHT22;310;48.490;9.200;2022-10-28T16:46:51;23.60;32.80
652;DHT22;310;48.490;9.200;2022-10-28T16:49:17;23.40;33.90
652;DHT22;310;48.490;9.200;2022-10-28T16:51:43;23.50;33.50
652;DHT22;310;48.490;9.200;2022-10-28T16:54:09;23.40;33.10
652;DHT22;310;48.490;9.200;2022-10-28T16:56:35;23.40;33.40
652;DHT22;310;48.490;9.200;2022-10-28T16:59:01;23.40;32.80
652;DHT22;310;48.490;9.200;2022-10-28T17:01:26;23.20;34.60
652;DHT22;310;48.490;9.200;2022-10-28T17:03:52;23.00;34.30
652;DHT22;310;48.490;9.200;2022-10-28T17:06:17;23.20;33.10
652;DHT22;310;48.490;9.200;2022-10-28T17:08:43;23.20;33.40
652;DHT22;310;48.490;9.200;2022-10-28T17:11:13;23.20;32.80
652;DHT22;310;48.490;9.200;2022-10-28T17:13:39;23.30;32.20
652;DHT22;310;48.490;9.200;2022-10-28T17:16:05;23.20;31.80
652;DHT22;310;48.490;9.200;2022-10-28T17:18:30;23.10;32.40
652;DHT22;310;48.490;9.200;2022-10-28T17:20:59;23.00;32.50
652;DHT22;310;48.490;9.200;2022-10-28T17:23:26;23.00;32.80
652;DHT22;310;48.490;9.200;2022-10-28T17:25:59;23.10;31.60
652;DHT22;310;48.490;9.200;2022-10-28T17:28:25;23.10;31.70
652;DHT22;310;48.490;9.200;2022-10-28T17:30:51;23.00;32.00
652;DHT22;310;48.490;9.200;2022-10-28T17:33:17;23.30;31.20
652;DHT22;310;48.490;9.200;2022-10-28T17:35:42;23.30;30.50
652;DHT22;310;48.490;9.200;2022-10-28T17:38:08;23.20;31.50
652;DHT22;310;48.490;9.200;2022-10-28T17:40:33;23.10;31.70
652;DHT22;310;48.490;9.200;2022-10-28T17:42:59;22.70;33.40
652;DHT22;310;48.490;9.200;2022-10-28T17:45:25;22.50;34.80
652;DHT22;310;48.490;9.200;2022-10-28T17:47:50;22.30;36.10
652;DHT22;310;48.490;9.200;2022-10-28T17:50:16;22.40;36.50
652;DHT22;310;48.490;9.200;2022-10-28T17:52:41;22.20;36.00
652;DHT22;310;48.490;9.200;2022-10-28T17:55:07;22.20;37.20
652;DHT22;310;48.490;9.200;2022-10-28T17:57:33;22.20;35.80
652;DHT22;310;48.490;9.200;2022-10-28T17:59:59;22.30;36.10
652;DHT22;310;48.490;9.200;2022-10-28T18:02:25;22.20;36.30
652;DHT22;310;48.490;9.200;2022-10-28T18:04:50;22.30;36.80
652;DHT22;310;48.490;9.200;2022-10-28T18:07:16;22.30;35.40
652;DHT22;310;48.490;9.200;2022-10-28T18:09:41;22.30;33.60
652;DHT22;310;48.490;9.200;2022-10-28T18:12:08;22.50;33.60
652;DHT22;310;48.490;9.200;2022-10-28T18:14:35;22.50;33.30
652;DHT22;310;48.490;9.200;2022-10-28T18:17:01;22.50;33.20
652;DHT22;310;48.490;9.200;2022-10-28T18:19:26;22.70;33.60
652;DHT22;310;48.490;9.200;2022-10-28T18:21:52;22.50;35.10
652;DHT22;310;48.490;9.200;2022-10-28T18:24:17;22.20;36.40
652;DHT22;310;48.490;9.200;2022-10-28T18:26:43;22.30;35.40
652;DHT22;310;48.490;9.200;2022-10-28T18:29:09;22.20;35.90
652;DHT22;310;48.490;9.200;2022-10-28T18:31:37;22.00;37.30
652;DHT22;310;48.490;9.200;2022-10-28T18:34:05;21.50;38.90
652;DHT22;310;48.490;9.200;2022-10-28T18:36:33;21.30;40.40
652;DHT22;310;48.490;9.200;2022-10-28T18:39:00;21.40;40.10
652;DHT22;310;48.490;9.200;2022-10-28T18:41:28;21.20;41.40
652;DHT22;310;48.490;9.200;2022-10-28T18:43:56;21.10;42.70
652;DHT22;310;48.490;9.200;2022-10-28T18:46:22;21.20;41.10
652;DHT22;310;48.490;9.200;2022-10-28T18:48:48;21.20;40.80
652;DHT22;310;48.490;9.200;2022-10-28T18:51:14;21.10;41.30
652;DHT22;310;48.490;9.200;2022-10-28T18:53:44;21.20;41.40
652;DHT22;310;48.490;9.200;2022-10-28T18:56:13;21.10;41.60
652;DHT22;310;48.490;9.200;2022-10-28T18:58:39;21.00;42.60
652;DHT22;310;48.490;9.200;2022-10-28T19:01:09;21.00;41.70
652;DHT22;310;48.490;9.200;2022-10-28T19:03:36;20.90;42.50
652;DHT22;310;48.490;9.200;2022-10-28T19:06:04;20.70;42.80
652;DHT22;310;48.490;9.200;2022-10-28T19:08:30;20.50;44.00
652;DHT22;310;48.490;9.200;2022-10-28T19:10:59;20.50;44.00
652;DHT22;310;48.490;9.200;2022-10-28T19:13:26;20.40;44.80
652;DHT22;310;48.490;9.200;2022-10-28T19:15:52;20.60;43.90
652;DHT22;310;48.490;9.200;2022-10-28T19:18:17;20.60;43.20
652;DHT22;310;48.490;9.200;2022-10-28T19:20:43;20.60;42.40
652;DHT22;310;48.490;9.200;2022-10-28T19:23:09;20.40;43.40
652;DHT22;310;48.490;9.200;2022-10-28T19:25:35;20.30;43.70
652;DHT22;310;48.490;9.200;2022-10-28T19:28:00;20.50;42.10
652;DHT22;310;48.490;9.200;2022-10-28T19:30:26;20.60;40.90
652;DHT22;310;48.490;9.200;2022-10-28T19:32:52;20.50;42.10
652;DHT22;310;48.490;9.200;2022-10-28T19:35:17;20.30;42.40
652;DHT22;310;48.490;9.200;2022-10-28T19:37:43;20.40;42.30
652;DHT22;310;48.490;9.200;2022-10-28T19:40:09;20.60;41.60
652;DHT22;310;48.490;9.200;2022-10-28T19:42:34;20.40;42.00
652;DHT22;310;48.490;9.200;2022-10-28T19:45:02;20.40;42.00
652;DHT22;310;48.490;9.200;2022-10-28T19:47:29;20.20;43.40
652;DHT22;310;48.490;9.200;2022-10-28T19:49:55;20.10;44.40
652;DHT22;310;48.490;9.200;2022-10-28T19:52:21;19.90;43.50
652;DHT22;310;48.490;9.200;2022-10-28T19:54:46;20.10;42.80
652;DHT22;310;48.490;9.200;2022-10-28T19:57:12;20.20;41.90